Pagrindinis puslapis
METAR-TAF:

METAR-TAF

Oro uostai :

Mo i Rana, Norvegija

platuma: 66-22N, ilguma: 014-18E, Aukštis: 7 m

Dabartinis oras

Ataskaita buvo paskelbta 6 valandos ir 57 minutes, ne 20:20 UTC
Vėjas 7 kt iš Pietryčių
Temperatūra 5°C
Drėgmė 87%
Slėgis 999 hPa
Matomumas 10 km arba daugiau
Mažai debesys ne aukštis 3500 ft
Su prošvaistėmis ne aukštis 4000 ft
lietus

METAR: ENRA 222020Z 13007KT 9999 -SHRA FEW035 BKN040 05/03 Q0999

Laikas: 05:17 (03:17 UTC)

Prognozė

Ataskaita buvo paskelbta 10 valandos ir 17 minutes, ne 17:00 UTC
Prognozė galioja nuo 22 metu 18 UTC su 22 metu 21 UTC
Vėjas 5 kt nuo kintamojo kryptimis
Matomumas 10 km arba daugiau
Mažai debesys ne aukštis 2000 ft
Su prošvaistėmis ne aukštis 3500 ft

TAF: ENRA 221700Z 2218/2221 VRB05KT 9999 FEW020 BKN035

Orai ataskaitas ir orų prognozės (METAR, TAF).

turimą stotys yra geltonos ir raudonos taškus žemėlapyje.

Perkelti pele per norėdami pamatyti stoties vardą.

Tada spustelėkite, norėdami matyti oro stebėjimo ir prognozės.

Norėdami pakeisti žemėlapį: spustelėkite ant žalios mygtukų su juodo kryžiaus žemyn,; žalią mygtuką su brūkšneliu, jei norite nutolinti; arba žalių rodyklių gretimoms žemėlapius.


METAR-TAF: